Saturday, May 26, 2018, 5:15 AM CDT
Back to Local

KGYY, Gary Regional

Location: Gary, IN, United States Lat: 41.617
Local Time: 5:15 AM CDT (10:15 GMT) Lon: -87.417
Time Zone: US/Central Elev: 590 ft

Show me the last for .
Show Decoded

2018-05-26 04:45 METAR KGYY 260945Z 21007KT 10SM OVC110 22/19 A2979 =
2018-05-26 04:15 METAR KGYY 260915Z AUTO 21003KT 10SM OVC110 22/19 A2979 RMK AO2 T02200186 =
2018-05-26 03:55 METAR KGYY 260855Z AUTO 22003KT 10SM OVC110 22/19 A2978 RMK AO2 T02200187 =
2018-05-26 03:35 METAR KGYY 260835Z AUTO 00000KT 10SM OVC120 22/19 A2977 RMK AO2 T02180187 =
2018-05-26 03:15 METAR KGYY 260815Z AUTO 00000KT 10SM BKN110 22/19 A2977 RMK AO2 T02170188 =
2018-05-26 02:55 METAR KGYY 260755Z AUTO 16006KT 10SM CLR 22/19 A2976 RMK AO2 T02150190 =
2018-05-26 02:35 METAR KGYY 260735Z AUTO 17003KT 10SM CLR 22/19 A2977 RMK AO2 T02160190 =
2018-05-26 02:15 METAR KGYY 260715Z AUTO 16003KT 10SM CLR 22/19 A2977 RMK AO2 T02200190 =
2018-05-26 01:55 METAR KGYY 260655Z AUTO 00000KT 10SM CLR 22/19 A2978 RMK AO2 T02230190 =
2018-05-26 01:35 METAR KGYY 260635Z AUTO 00000KT 10SM CLR 23/19 A2979 RMK AO2 T02270190 =
2018-05-26 01:15 METAR KGYY 260615Z AUTO 00000KT 10SM CLR 23/19 A2979 RMK AO2 T02300191 =
2018-05-26 00:55 METAR KGYY 260555Z AUTO 00000KT 10SM SCT120 23/20 A2980 RMK AO2 60001 T02300197
                 10277 20225 403300158 =
2018-05-26 00:35 METAR KGYY 260535Z AUTO 22003KT 10SM SCT100 SCT120 23/20 A2981 RMK AO2 T02310200
                 =
2018-05-26 00:15 METAR KGYY 260515Z AUTO 23004KT 10SM BKN110 23/20 A2981 RMK AO2 T02320201 =
2018-05-25 23:55 METAR KGYY 260455Z AUTO 00000KT 10SM BKN110 23/20 A2981 RMK AO2 T02250203 =
2018-05-25 23:35 METAR KGYY 260435Z AUTO 00000KT 10SM BKN110 23/20 A2982 RMK AO2 T02270202 =
2018-05-25 23:15 METAR KGYY 260415Z AUTO 25005KT 10SM RA SCT070 SCT080 OVC100 23/20 A2983 RMK AO2
                 T02290195 =
2018-05-25 22:55 METAR KGYY 260355Z AUTO 28006KT 10SM -DZ SCT070 OVC090 24/20 A2983 RMK AO2 P0001
                 T02350195 =
2018-05-25 22:35 METAR KGYY 260335Z AUTO 00000KT 7SM -RA BKN070 OVC090 24/19 A2982 RMK AO2 P0001
                 T02410189 =
2018-05-25 22:15 METAR KGYY 260315Z AUTO 21003KT 10SM OVC080 25/18 A2981 RMK AO2 T02500175 =
2018-05-25 21:45 METAR KGYY 260245Z 20004KT 10SM OVC080 26/16 A2980 =
2018-05-25 20:45 METAR KGYY 260145Z 18004KT 10SM OVC090 27/16 A2978 =
2018-05-25 19:45 METAR KGYY 260045Z 24005KT 10SM OVC090 27/16 A2977 =
2018-05-25 18:45 METAR KGYY 252345Z 09005KT 10SM OVC090 28/14 A2977 =
2018-05-25 17:45 METAR KGYY 252245Z 09005KT 10SM SCT090 28/13 A2978 =
2018-05-25 16:45 METAR KGYY 252145Z 09011KT 10SM SCT100 29/13 A2981 =
2018-05-25 15:45 METAR KGYY 252045Z 09010KT 10SM SCT100 29/13 A2982 =
2018-05-25 14:45 METAR KGYY 251945Z 10SM SCT100 33/09 A2984 =
2018-05-25 13:45 METAR KGYY 251845Z 16007KT 10SM SCT080 32/10 A2988 =
2018-05-25 12:45 METAR KGYY 251745Z 25010KT 10SM SCT065 31/11 A2991 =
2018-05-25 11:45 METAR KGYY 251645Z 20006KT 10SM FEW060 SCT250 30/12 A2993 =
2018-05-25 10:45 METAR KGYY 251545Z 20008KT 10SM FEW250 29/13 A2993 =
2018-05-25 09:45 METAR KGYY 251445Z 23007KT 10SM SKC 28/12 A2995 =
2018-05-25 08:45 METAR KGYY 251345Z 21007KT 10SM SKC 26/11 A2997 =
2018-05-25 07:45 METAR KGYY 251245Z 19006KT 10SM SKC 24/12 A2996 =
2018-05-25 06:45 METAR KGYY 251145Z 17005KT 10SM FEW250 22/11 A2997 =
2018-05-25 05:45 METAR KGYY 251045Z 17005KT 10SM FEW250 19/10 A3000 =

Support USWX by starting your Amazon purchase here.